Time;durP1;ratioP1;P1;durP2;ratioP2;P2;SDS_P1;SDS_P2;PMS_P1;PMS_P2;Temp;Humidity;BMP_temperature;BMP_pressure;BME280_temperature;BME280_humidity;BME280_pressure;Samples;Min_cycle;Max_cycle;Signal;HPM_P1;HPM_P2
2021/01/03 00:01:52;;;;;;;152.33;65.33;;;;;;;1.11;86.42;100155.09;120402;1148;22909;-62
2021/01/03 00:04:22;;;;;;;162.50;67.87;;;;;;;1.07;86.46;100162.63;120410;1147;25931;-64
2021/01/03 00:06:54;;;;;;;169.40;72.25;;;;;;;1.10;86.46;100164.52;120415;1146;26347;-64
2021/01/03 00:09:25;;;;;;;162.70;68.27;;;;;;;1.11;86.27;100157.84;120419;1145;23013;-62
2021/01/03 00:11:56;;;;;;;178.47;77.33;;;;;;;1.11;86.71;100155.09;123782;1146;22993;-62
2021/01/03 00:14:30;;;;;;;179.63;81.13;;;;;;;1.13;86.67;100144.45;120542;1146;26611;-60
2021/01/03 00:17:05;;;;;;;172.37;79.03;;;;;;;1.14;86.75;100146.78;120370;1148;22949;-62
2021/01/03 00:19:36;;;;;;;168.55;75.65;;;;;;;1.14;86.25;100146.78;120522;1146;22993;-62
2021/01/03 00:22:06;;;;;;;149.05;68.52;;;;;;;1.15;86.66;100153.84;120336;1147;24608;-62
2021/01/03 00:24:36;;;;;;;169.90;70.83;;;;;;;1.14;86.05;100138.53;120381;1148;22920;-62
2021/01/03 00:27:08;;;;;;;151.50;67.70;;;;;;;1.15;86.14;100142.06;120483;1146;25966;-63
2021/01/03 00:29:38;;;;;;;150.13;65.83;;;;;;;1.14;86.57;100140.53;124269;1146;22740;-63
2021/01/03 00:32:08;;;;;;;147.80;64.50;;;;;;;1.15;86.40;100133.81;120364;1148;23006;-62
2021/01/03 00:34:38;;;;;;;159.55;69.65;;;;;;;1.14;86.91;100137.78;121845;1147;22910;-62
2021/01/03 00:37:08;;;;;;;134.37;61.30;;;;;;;1.15;86.40;100137.35;120304;1147;23025;-62
2021/01/03 00:39:38;;;;;;;156.23;64.03;;;;;;;1.14;86.74;100144.03;120348;1148;23013;-63
2021/01/03 00:42:09;;;;;;;156.02;65.72;;;;;;;1.14;86.41;100141.28;120317;1147;26037;-63
2021/01/03 00:44:38;;;;;;;;;;;;;;;1.15;86.45;100147.56;120419;1147;22911;-62
2021/01/03 00:47:08;;;;;;;147.53;58.30;;;;;;;1.14;87.07;100146.03;120501;1148;21633;-61
2021/01/03 00:49:37;;;;;;;;;;;;;;;1.13;86.71;100133.46;120763;1147;22988;-62
2021/01/03 00:52:07;;;;;;;167.47;65.00;;;;;;;1.12;86.62;100140.17;120274;1146;21622;-63
2021/01/03 00:54:38;;;;;;;163.50;68.27;;;;;;;1.12;86.87;100140.92;120312;1148;22974;-63
2021/01/03 00:57:08;;;;;;;160.90;66.30;;;;;;;1.13;87.01;100142.49;120300;1148;22949;-63
2021/01/03 00:59:38;;;;;;;161.10;67.50;;;;;;;1.13;86.95;100136.99;120264;1148;22913;-62
2021/01/03 01:02:11;;;;;;;152.00;66.75;;;;;;;1.14;86.85;100138.53;120419;1147;22941;-63
2021/01/03 01:04:41;;;;;;;145.60;62.00;;;;;;;1.14;86.93;100140.53;120452;1147;26758;-64
2021/01/03 01:07:11;;;;;;;149.97;63.13;;;;;;;1.15;86.55;100139.31;120994;1146;22935;-62
2021/01/03 01:09:41;;;;;;;153.97;63.60;;;;;;;1.15;86.38;100137.35;120325;1146;22935;-63
2021/01/03 01:12:11;;;;;;;149.07;62.93;;;;;;;1.15;86.35;100136.56;120302;1146;22916;-64
2021/01/03 01:14:43;;;;;;;141.30;63.65;;;;;;;1.17;87.11;100140.45;120403;1146;23047;-63
2021/01/03 01:17:13;;;;;;;152.13;65.50;;;;;;;1.19;86.90;100134.53;120307;1147;22938;-63
2021/01/03 01:19:44;;;;;;;157.93;63.85;;;;;;;1.18;86.75;100133.00;120410;1148;25856;-62
2021/01/03 01:22:12;;;;;;;;;;;;;;;1.18;86.39;100127.50;120294;1147;22946;-63
2021/01/03 01:24:42;;;;;;;147.97;60.10;;;;;;;1.17;86.43;100112.18;120348;1148;22926;-62
2021/01/03 01:27:13;;;;;;;132.53;52.67;;;;;;;1.16;86.88;100111.39;120281;1147;24551;-62
2021/01/03 01:29:43;;;;;;;154.60;60.90;;;;;;;1.17;86.59;100120.43;120384;1147;24492;-64
2021/01/03 01:32:13;;;;;;;133.95;57.08;;;;;;;1.17;87.06;100118.46;120285;1148;25781;-62
2021/01/03 01:34:43;;;;;;;134.87;61.13;;;;;;;1.17;86.80;100125.93;120219;1147;26411;-63
2021/01/03 01:37:14;;;;;;;142.80;58.92;;;;;;;1.17;86.91;100107.47;120627;1146;22913;-63
2021/01/03 01:39:43;;;;;;;;;;;;;;;1.17;87.15;100112.97;120341;1148;23012;-63
2021/01/03 01:42:13;;;;;;;132.20;55.83;;;;;;;1.15;86.69;100107.11;120290;1147;21569;-63
2021/01/03 01:44:42;;;;;;;;;;;;;;;1.15;86.53;100112.61;120430;1146;22971;-62
2021/01/03 01:47:19;;;;;;;138.37;55.77;;;;;;;1.14;87.25;100102.03;120294;1147;24626;-62
2021/01/03 01:49:50;;;;;;;136.45;55.70;;;;;;;1.15;86.50;100104.36;120291;1147;25817;-63
2021/01/03 01:52:22;;;;;;;130.73;54.67;;;;;;;1.15;87.09;100095.33;120522;1147;22915;-64
2021/01/03 01:54:58;;;;;;;123.27;54.10;;;;;;;1.16;87.15;100114.14;120350;1146;26365;-63
2021/01/03 01:57:33;;;;;;;136.70;56.55;;;;;;;1.16;86.92;100108.64;120271;1147;23524;-63
2021/01/03 02:00:09;;;;;;;132.00;55.27;;;;;;;1.16;87.25;100097.65;120309;1148;22936;-62
2021/01/03 02:02:44;;;;;;;125.47;52.43;;;;;;;1.16;87.19;100105.89;120526;1146;22938;-63
2021/01/03 02:05:21;;;;;;;127.97;52.17;;;;;;;1.16;86.71;100097.65;120396;1147;22926;-62
2021/01/03 02:08:01;;;;;;;134.17;55.80;;;;;;;1.17;86.76;100106.68;121015;1147;27305;-65
2021/01/03 02:10:33;;;;;;;135.65;57.50;;;;;;;1.19;87.40;100127.07;120607;1147;26009;-62
2021/01/03 02:13:10;;;;;;;137.15;57.25;;;;;;;1.20;87.26;100105.86;120363;1147;22924;-62
2021/01/03 02:15:41;;;;;;;134.97;59.37;;;;;;;1.22;87.18;100100.72;120292;1148;22912;-64
2021/01/03 02:18:16;;;;;;;141.90;57.70;;;;;;;1.22;87.46;100098.72;120331;1148;22986;-62
2021/01/03 02:20:59;;;;;;;125.70;54.70;;;;;;;1.23;86.90;100081.04;120349;1147;23402;-64
2021/01/03 02:23:39;;;;;;;134.73;56.13;;;;;;;1.22;87.35;100081.47;120533;1146;22938;-63
2021/01/03 02:26:10;;;;;;;128.27;53.90;;;;;;;1.22;86.98;100073.97;120453;1147;23008;-63
2021/01/03 02:28:43;;;;;;;135.10;57.37;;;;;;;1.24;87.32;100070.83;120698;1146;24596;-63
2021/01/03 02:31:20;;;;;;;133.23;57.50;;;;;;;1.25;86.92;100070.39;120285;1147;27986;-63
2021/01/03 02:33:53;;;;;;;114.10;51.15;;;;;;;1.25;86.97;100051.15;120431;1146;23004;-63
2021/01/03 02:36:31;;;;;;;130.40;54.73;;;;;;;1.24;87.57;100055.08;120702;1146;27254;-63
2021/01/03 02:39:13;;;;;;;119.30;53.77;;;;;;;1.25;86.91;100059.39;120635;1146;22919;-62
2021/01/03 02:41:46;;;;;;;124.85;52.60;;;;;;;1.24;87.17;100059.83;120368;1146;26037;-63
2021/01/03 02:44:17;;;;;;;118.27;54.37;;;;;;;1.24;87.05;100049.58;120645;1146;26089;-62
2021/01/03 02:46:48;;;;;;;125.20;53.50;;;;;;;1.25;87.39;100037.39;120316;1147;22928;-62
2021/01/03 02:49:24;;;;;;;126.15;54.20;;;;;;;1.27;86.78;100045.22;120612;1146;22938;-62
2021/01/03 02:51:54;;;;;;;121.40;50.30;;;;;;;1.26;86.96;100051.93;120372;1146;23172;-62
2021/01/03 02:54:25;;;;;;;120.47;51.40;;;;;;;1.26;87.14;100062.93;120255;1146;22995;-62
2021/01/03 02:56:56;;;;;;;119.83;52.97;;;;;;;1.28;87.58;100055.03;120308;1148;22998;-62
2021/01/03 02:59:26;;;;;;;118.08;52.10;;;;;;;1.28;87.48;100061.29;120426;1148;27662;-63
2021/01/03 03:01:57;;;;;;;121.50;54.13;;;;;;;1.29;87.21;100056.58;120407;1147;23012;-63
2021/01/03 03:04:29;;;;;;;124.43;55.53;;;;;;;1.29;86.98;100051.86;120256;1148;22924;-62
2021/01/03 03:06:59;;;;;;;125.07;53.50;;;;;;;1.31;87.31;100059.68;120182;1147;22903;-63
2021/01/03 03:09:36;;;;;;;122.60;52.20;;;;;;;1.32;87.14;100055.75;120195;1147;22920;-63
2021/01/03 03:12:12;;;;;;;123.37;54.93;;;;;;;1.32;87.22;100050.25;120150;1148;22943;-63
2021/01/03 03:14:42;;;;;;;120.93;52.40;;;;;;;1.34;87.23;100047.84;120342;1146;22970;-63
2021/01/03 03:17:14;;;;;;;123.95;51.75;;;;;;;1.35;87.34;100049.39;120331;1147;22917;-62
2021/01/03 03:19:45;;;;;;;110.10;51.60;;;;;;;1.36;87.18;100048.20;120286;1146;22934;-64
2021/01/03 03:22:16;;;;;;;113.60;50.23;;;;;;;1.36;87.47;100051.73;120141;1148;23018;-63
2021/01/03 03:24:46;;;;;;;114.20;52.23;;;;;;;1.36;87.23;100042.70;120336;1146;22935;-62
2021/01/03 03:27:16;;;;;;;119.30;53.17;;;;;;;1.36;87.23;100045.45;120301;1147;22918;-62
2021/01/03 03:29:48;;;;;;;114.47;51.60;;;;;;;1.36;87.39;100050.95;120253;1148;22904;-62
2021/01/03 03:32:39;;;;;;;116.67;49.83;;;;;;;1.37;86.96;100041.48;120267;1147;23012;-64
2021/01/03 03:35:15;;;;;;;115.60;50.27;;;;;;;1.38;87.06;100034.81;120185;1147;25937;-63
2021/01/03 03:37:45;;;;;;;107.80;48.63;;;;;;;1.39;87.35;100030.84;120350;1146;23028;-63
2021/01/03 03:40:22;;;;;;;121.80;52.97;;;;;;;1.37;87.19;100049.74;120287;1147;23003;-63
2021/01/03 03:42:52;;;;;;;122.60;52.83;;;;;;;1.36;87.01;100050.95;120543;1148;22938;-62
2021/01/03 03:45:24;;;;;;;115.20;50.83;;;;;;;1.35;87.13;100049.39;120244;1146;25964;-64
2021/01/03 03:47:56;;;;;;;111.15;51.25;;;;;;;1.36;87.48;100048.20;120442;1147;22866;-62
2021/01/03 03:50:26;;;;;;;121.07;51.90;;;;;;;1.35;86.90;100044.67;120198;1147;22935;-63
2021/01/03 03:52:59;;;;;;;132.10;60.53;;;;;;;1.35;87.14;100039.17;120515;1148;29001;-62
2021/01/03 03:55:32;;;;;;;122.97;55.67;;;;;;;1.35;87.06;100041.92;120203;1148;22922;-64
2021/01/03 03:58:04;;;;;;;119.67;52.20;;;;;;;1.34;87.11;100037.63;120293;1148;22920;-63
2021/01/03 04:00:35;;;;;;;115.75;52.95;;;;;;;1.33;87.55;100016.81;120226;1148;26350;-63
2021/01/03 04:03:09;;;;;;;107.15;49.55;;;;;;;1.33;87.23;100027.81;120279;1148;22944;-63
2021/01/03 04:05:39;;;;;;;114.43;50.07;;;;;;;1.32;87.05;100007.03;120462;1148;22927;-63
2021/01/03 04:08:14;;;;;;;;;;;;;;;1.31;87.50;100016.46;120509;1148;23174;-62
2021/01/03 04:10:55;;;;;;;113.20;48.37;;;;;;;1.30;87.15;100016.89;120334;1148;21555;-62
2021/01/03 04:13:27;;;;;;;112.30;50.57;;;;;;;1.29;87.62;100018.86;120289;1148;22917;-62
2021/01/03 04:16:09;;;;;;;112.20;48.50;;;;;;;1.30;87.13;100014.14;120317;1148;22994;-63
2021/01/03 04:18:44;;;;;;;113.95;51.70;;;;;;;1.28;86.98;100008.28;120293;1148;22914;-62
2021/01/03 04:21:15;;;;;;;109.43;49.63;;;;;;;1.28;87.20;99991.78;120287;1148;22935;-63
2021/01/03 04:23:52;;;;;;;99.90;45.77;;;;;;;1.25;87.26;99998.12;120307;1147;22913;-62
2021/01/03 04:26:27;;;;;;;104.30;50.43;;;;;;;1.26;87.27;100002.44;120286;1147;22911;-61
2021/01/03 04:29:01;;;;;;;110.83;48.77;;;;;;;1.26;87.36;100002.44;120565;1147;22938;-62
2021/01/03 04:31:31;;;;;;;112.00;50.40;;;;;;;1.28;87.56;100000.03;120509;1148;24603;-61
2021/01/03 04:34:01;;;;;;;103.50;47.93;;;;;;;1.27;87.77;99987.47;120529;1147;22994;-61
2021/01/03 04:36:32;;;;;;;100.40;46.17;;;;;;;1.24;87.14;99988.33;120474;1148;22945;-61
2021/01/03 04:39:08;;;;;;;91.87;43.33;;;;;;;1.24;87.59;99989.08;120319;1148;22909;-61
2021/01/03 04:41:45;;;;;;;94.97;43.67;;;;;;;1.24;87.62;99986.33;120327;1147;22942;-60
2021/01/03 04:44:24;;;;;;;94.30;42.20;;;;;;;1.23;88.00;99975.77;120243;1146;22942;-61
2021/01/03 04:46:54;;;;;;;100.80;46.37;;;;;;;1.20;87.24;99985.63;120305;1147;22948;-61
2021/01/03 04:49:32;;;;;;;103.90;48.30;;;;;;;1.20;87.45;99971.13;120335;1148;26069;-61
2021/01/03 04:52:33;;;;;;;93.43;44.40;;;;;;;1.21;87.39;99969.91;120559;1146;25957;-61
2021/01/03 04:55:12;;;;;;;102.77;44.57;;;;;;;1.21;88.03;99961.66;120454;1146;22965;-61
2021/01/03 04:58:13;;;;;;;96.90;48.13;;;;;;;1.20;88.05;99957.38;120356;1147;24022;-62
2021/01/03 05:00:47;;;;;;;97.43;43.83;;;;;;;1.19;87.89;99959.34;120415;1147;27251;-61
2021/01/03 05:03:48;;;;;;;97.50;43.07;;;;;;;1.20;87.90;99940.87;120657;1146;22954;-62
2021/01/03 05:06:24;;;;;;;;;;;;;;;1.20;87.69;99962.87;120567;1147;26396;-61
2021/01/03 05:09:03;;;;;;;88.35;39.70;;;;;;;1.19;87.80;99953.84;120547;1147;22573;-62
2021/01/03 05:11:44;;;;;;;68.70;32.17;;;;;;;1.18;87.73;99952.28;120482;1146;22925;-61
2021/01/03 05:14:22;;;;;;;98.53;47.30;;;;;;;1.18;87.82;99957.78;120612;1147;22892;-61
2021/01/03 05:16:57;;;;;;;97.53;48.27;;;;;;;1.20;87.69;99957.38;120584;1147;22925;-61
2021/01/03 05:19:29;;;;;;;105.97;46.27;;;;;;;1.19;87.93;99958.56;120628;1146;22916;-61
2021/01/03 05:21:59;;;;;;;93.07;45.13;;;;;;;1.18;87.81;99962.53;120495;1146;27720;-61
2021/01/03 05:24:46;;;;;;;90.20;43.30;;;;;;;1.17;88.19;99956.24;120461;1147;22909;-61
2021/01/03 05:27:20;;;;;;;79.85;36.45;;;;;;;1.17;88.37;99941.71;120584;1146;27298;-61
2021/01/03 05:29:55;;;;;;;100.43;46.17;;;;;;;1.17;87.95;99953.50;120516;1147;26399;-61
2021/01/03 05:32:30;;;;;;;94.50;46.17;;;;;;;1.17;88.56;99948.00;120451;1146;22935;-61
2021/01/03 05:35:20;;;;;;;98.63;46.20;;;;;;;1.18;88.30;99941.28;120471;1147;22909;-61
2021/01/03 05:37:57;;;;;;;100.72;45.60;;;;;;;1.18;87.90;99937.78;120363;1148;22974;-61
2021/01/03 05:40:37;;;;;;;97.50;44.17;;;;;;;1.19;87.90;99937.34;120400;1148;22939;-63
2021/01/03 05:43:20;;;;;;;107.05;48.58;;;;;;;1.18;88.22;99932.28;120469;1146;23053;-62
2021/01/03 05:46:04;;;;;;;101.00;45.70;;;;;;;1.17;87.99;99931.50;120702;1146;23042;-62
2021/01/03 05:48:45;;;;;;;99.20;44.23;;;;;;;1.20;88.58;99932.63;120309;1148;22913;-62
2021/01/03 05:54:37;;;;;;;103.83;47.37;;;;;;;1.21;88.21;99940.45;120244;1147;23018;-62
2021/01/03 05:57:26;;;;;;;103.33;48.90;;;;;;;1.22;88.39;99935.73;120428;1147;23370;-61
2021/01/03 06:00:00;;;;;;;111.47;49.83;;;;;;;1.23;88.20;99934.52;120587;1147;26628;-62
2021/01/03 06:02:30;;;;;;;105.10;49.13;;;;;;;1.25;88.77;99937.63;120272;1147;27771;-63
2021/01/03 06:05:08;;;;;;;110.00;50.23;;;;;;;1.25;88.62;99932.13;120391;1147;22946;-62
2021/01/03 06:08:11;;;;;;;104.27;50.50;;;;;;;1.28;88.41;99934.04;120531;1147;22924;-61
2021/01/03 06:10:43;;;;;;;104.80;49.63;;;;;;;1.30;88.52;99945.39;120454;1147;22996;-62
2021/01/03 06:13:16;;;;;;;106.13;49.67;;;;;;;1.32;88.37;99953.99;120260;1147;22910;-62
2021/01/03 06:15:58;;;;;;;108.70;54.10;;;;;;;1.35;88.10;99939.37;120459;1146;26085;-62
2021/01/03 06:18:45;;;;;;;107.73;51.40;;;;;;;1.36;88.25;99952.73;120429;1147;22996;-62
2021/01/03 06:21:28;;;;;;;105.83;49.80;;;;;;;1.38;88.43;99968.80;120524;1148;22913;-61
2021/01/03 06:24:13;;;;;;;102.07;49.40;;;;;;;1.40;88.11;99960.90;120439;1147;22925;-61
2021/01/03 06:26:50;;;;;;;106.87;52.13;;;;;;;1.41;88.30;99951.43;120555;1146;27284;-62
2021/01/03 06:29:33;;;;;;;107.93;50.23;;;;;;;1.42;88.43;99967.53;120921;1146;22925;-63
2021/01/03 06:32:36;;;;;;;103.80;51.27;;;;;;;1.44;88.31;99956.88;120537;1146;27287;-61
2021/01/03 06:35:22;;;;;;;108.00;51.27;;;;;;;1.45;88.21;99963.92;120311;1147;27691;-62
2021/01/03 06:38:04;;;;;;;108.30;51.30;;;;;;;1.46;88.19;99972.95;120328;1146;22909;-62
2021/01/03 06:41:00;;;;;;;114.45;53.05;;;;;;;1.46;88.72;99965.48;120474;1147;23012;-61
2021/01/03 06:44:12;;;;;;;107.13;51.83;;;;;;;1.48;88.42;99981.55;120531;1148;22917;-61
2021/01/03 06:47:33;;;;;;;103.73;47.07;;;;;;;1.47;88.53;99972.52;120472;1150;23010;-61
2021/01/03 06:50:42;;;;;;;89.53;42.33;;;;;;;1.46;88.51;99967.45;120312;1150;22999;-60
2021/01/03 06:53:41;;;;;;;103.35;48.63;;;;;;;1.45;88.29;99965.88;120263;1151;22902;-61
2021/01/03 06:56:52;;;;;;;103.93;49.57;;;;;;;1.47;88.28;99963.48;120299;1151;23397;-61
2021/01/03 07:00:03;;;;;;;99.10;45.00;;;;;;;1.49;88.57;99972.12;119932;1151;25944;-61
2021/01/03 07:02:43;;;;;;;108.90;49.33;;;;;;;1.49;88.30;99964.62;120063;1151;23209;-61
2021/01/03 07:05:20;;;;;;;111.50;48.37;;;;;;;1.49;88.21;99956.37;120000;1151;23376;-60
2021/01/03 07:08:11;;;;;;;99.30;46.35;;;;;;;1.51;88.44;99958.72;120085;1151;22988;-60
2021/01/03 07:10:45;;;;;;;106.73;51.70;;;;;;;1.51;88.41;99953.22;120116;1159;23013;-61
2021/01/03 07:13:41;;;;;;;93.90;43.80;;;;;;;1.51;88.20;99956.72;120125;1151;24618;-61
2021/01/03 07:16:54;;;;;;;102.03;48.20;;;;;;;1.52;88.31;99952.00;120100;1153;22946;-60
2021/01/03 07:19:41;;;;;;;101.33;46.90;;;;;;;1.52;88.84;99961.03;119966;1154;23027;-61
2021/01/03 07:22:20;;;;;;;99.40;47.53;;;;;;;1.54;88.65;99963.35;120007;1153;22973;-61
2021/01/03 07:25:16;;;;;;;97.70;47.87;;;;;;;1.54;88.43;99963.35;120017;1151;22900;-61
2021/01/03 07:27:54;;;;;;;97.33;46.50;;;;;;;1.56;88.80;99958.20;119835;1149;23078;-60
2021/01/03 07:30:39;;;;;;;102.40;49.57;;;;;;;1.56;88.67;99958.98;120024;1151;22988;-60
2021/01/03 07:33:20;;;;;;;107.17;49.43;;;;;;;1.57;88.44;99959.77;120067;1151;25516;-61
2021/01/03 07:35:50;;;;;;;112.30;50.73;;;;;;;1.56;88.22;99969.98;120143;1151;22921;-61
2021/01/03 07:38:22;;;;;;;;;;;;;;;1.59;88.38;99977.38;120318;1150;23099;-61
2021/01/03 07:40:56;;;;;;;119.23;58.17;;;;;;;1.61;88.42;99968.72;120296;1149;25709;-60
2021/01/03 07:43:27;;;;;;;117.33;57.00;;;;;;;1.61;88.89;99971.47;120305;1149;22958;-63
2021/01/03 07:45:57;;;;;;;121.60;61.27;;;;;;;1.64;88.78;99967.85;120136;1150;23020;-62
2021/01/03 07:48:37;;;;;;;;;;;;;;;1.63;88.43;99960.81;120211;1150;27246;-62
2021/01/03 07:51:12;;;;;;;128.35;70.65;;;;;;;1.65;88.83;99963.91;120485;1149;22331;-61
2021/01/03 07:53:42;;;;;;;111.77;56.60;;;;;;;1.67;88.49;99960.73;120627;1147;25811;-60
2021/01/03 07:56:19;;;;;;;110.68;51.73;;;;;;;1.69;88.46;99961.86;120368;1146;22913;-63
2021/01/03 07:58:55;;;;;;;102.53;49.80;;;;;;;1.71;88.40;99955.92;120452;1147;22990;-62
2021/01/03 08:01:31;;;;;;;101.33;49.23;;;;;;;1.75;88.82;99956.63;120480;1148;22935;-61
2021/01/03 08:04:18;;;;;;;97.97;47.43;;;;;;;1.76;88.23;99947.93;120393;1146;26066;-61
2021/01/03 08:06:49;;;;;;;93.10;43.70;;;;;;;1.77;88.81;99941.23;120447;1147;27278;-62
2021/01/03 08:09:25;;;;;;;;;;;;;;;1.78;88.45;99947.53;120561;1146;22942;-62
2021/01/03 08:12:09;;;;;;;85.85;41.00;;;;;;;1.78;88.46;99942.02;120502;1147;21572;-63
2021/01/03 08:14:41;;;;;;;86.70;42.80;;;;;;;1.78;88.47;99940.02;120474;1148;22966;-62
2021/01/03 08:17:25;;;;;;;92.30;44.10;;;;;;;1.78;88.14;99944.77;120409;1147;22895;-62
2021/01/03 08:20:03;;;;;;;95.00;44.40;;;;;;;1.78;88.64;99942.77;120403;1148;22924;-61
2021/01/03 08:22:33;;;;;;;80.50;40.35;;;;;;;1.79;88.44;99941.59;120378;1147;23054;-62
2021/01/03 08:25:07;;;;;;;93.42;45.95;;;;;;;1.79;88.39;99949.84;120626;1147;22924;-61
2021/01/03 08:27:44;;;;;;;93.60;42.50;;;;;;;1.80;88.56;99954.13;120419;1146;26433;-63
2021/01/03 08:30:20;;;;;;;95.70;47.60;;;;;;;1.82;88.37;99959.98;120322;1146;22952;-62
2021/01/03 08:32:52;;;;;;;86.70;44.10;;;;;;;1.86;88.60;99965.44;120262;1148;23046;-62
2021/01/03 08:35:29;;;;;;;89.40;46.87;;;;;;;1.87;88.31;99962.24;120261;1148;26791;-62
2021/01/03 08:38:00;;;;;;;87.17;45.37;;;;;;;1.90;88.81;99964.16;120633;1146;23045;-61
2021/01/03 08:40:33;;;;;;;87.00;43.40;;;;;;;1.92;88.52;99963.72;120650;1147;27461;-61
2021/01/03 08:43:08;;;;;;;86.10;41.57;;;;;;;1.94;88.67;99967.61;120588;1146;23077;-61
2021/01/03 08:45:41;;;;;;;91.05;45.55;;;;;;;1.96;88.37;99962.45;120495;1147;24479;-61
2021/01/03 08:48:13;;;;;;;90.00;45.17;;;;;;;1.99;88.23;99963.55;120411;1146;22940;-62
2021/01/03 08:50:44;;;;;;;86.70;42.17;;;;;;;2.01;88.36;99966.64;120466;1147;24585;-61
2021/01/03 08:53:22;;;;;;;87.33;43.57;;;;;;;2.03;88.52;99967.77;120491;1147;22949;-60
2021/01/03 08:56:03;;;;;;;87.13;44.53;;;;;;;2.04;88.29;99968.56;120271;1147;23077;-62
2021/01/03 08:58:39;;;;;;;89.17;43.30;;;;;;;2.06;88.83;99968.91;120310;1148;22988;-62
2021/01/03 09:01:21;;;;;;;84.10;42.07;;;;;;;2.10;88.66;99983.36;120198;1147;27405;-61
2021/01/03 09:03:54;;;;;;;80.80;41.83;;;;;;;2.10;88.74;99988.88;120416;1148;23358;-61
2021/01/03 09:06:25;;;;;;;87.97;42.63;;;;;;;2.12;88.48;99980.95;120337;1147;22914;-61
2021/01/03 09:08:57;;;;;;;74.23;36.13;;;;;;;2.14;88.44;99973.83;120778;1147;22931;-61
2021/01/03 09:11:32;;;;;;;85.13;41.70;;;;;;;2.15;88.49;99975.36;120391;1147;27710;-61
2021/01/03 09:14:17;;;;;;;87.77;42.47;;;;;;;2.17;88.29;99972.95;120616;1147;27402;-62
2021/01/03 09:16:54;;;;;;;80.20;39.23;;;;;;;2.18;88.26;99971.77;120234;1147;22966;-62
2021/01/03 09:19:29;;;;;;;76.63;38.37;;;;;;;2.18;88.05;99979.24;120288;1147;22872;-62
2021/01/03 09:22:02;;;;;;;84.70;39.50;;;;;;;2.19;88.26;99970.55;120212;1148;24704;-62
2021/01/03 09:24:34;;;;;;;79.60;40.10;;;;;;;2.22;88.23;99979.94;120354;1146;22941;-63
2021/01/03 09:27:09;;;;;;;84.30;40.87;;;;;;;2.22;88.60;99977.96;120268;1147;22913;-63
2021/01/03 09:29:41;;;;;;;85.43;42.20;;;;;;;2.23;88.56;99982.28;120422;1146;23025;-62
2021/01/03 09:32:27;;;;;;;90.87;42.63;;;;;;;2.25;88.32;99992.86;120328;1146;22917;-61
2021/01/03 09:35:20;;;;;;;78.40;41.63;;;;;;;2.25;88.26;99985.37;120286;1147;25957;-62
2021/01/03 09:38:21;;;;;;;92.73;49.70;;;;;;;2.27;88.53;99987.70;120255;1148;22927;-64
2021/01/03 09:41:08;;;;;;;92.10;45.40;;;;;;;2.28;88.34;99980.97;120436;1147;22913;-61
2021/01/03 09:43:58;;;;;;;95.97;47.63;;;;;;;2.30;88.38;99975.80;120331;1148;22924;-61
2021/01/03 09:46:32;;;;;;;87.90;43.77;;;;;;;2.31;88.41;99969.11;120263;1147;22923;-65
2021/01/03 09:49:19;;;;;;;95.83;48.33;;;;;;;2.33;88.19;99969.45;120645;1147;22949;-65
2021/01/03 09:52:01;;;;;;;105.23;54.20;;;;;;;2.34;88.37;99968.23;120331;1148;22925;-61
2021/01/03 09:54:44;;;;;;;87.53;45.53;;;;;;;2.34;88.29;99977.28;120286;1147;22875;-64
2021/01/03 09:57:27;;;;;;;80.20;40.97;;;;;;;2.37;88.42;99981.16;120413;1148;23077;-62
2021/01/03 09:59:59;;;;;;;80.13;40.30;;;;;;;2.38;88.48;99977.19;120640;1146;24570;-61
2021/01/03 10:02:29;;;;;;;85.27;41.57;;;;;;;2.39;88.31;99979.53;120818;1147;23077;-60
2021/01/03 10:05:00;;;;;;;97.42;50.10;;;;;;;2.41;88.37;99977.13;123004;1148;23003;-61
2021/01/03 10:07:30;;;;;;;90.30;48.03;;;;;;;2.39;88.10;99973.24;123373;1146;22914;-61
2021/01/03 10:10:06;;;;;;;86.40;47.67;;;;;;;2.38;88.44;99975.22;120609;1147;22919;-63
2021/01/03 10:12:38;;;;;;;80.90;43.50;;;;;;;2.41;88.28;99979.09;120703;1147;27213;-64
2021/01/03 10:15:14;;;;;;;72.67;38.87;;;;;;;2.40;88.11;99964.54;120608;1146;22913;-65
2021/01/03 10:17:56;;;;;;;81.37;38.97;;;;;;;2.39;88.37;99965.76;123677;1147;23294;-64
2021/01/03 10:20:50;;;;;;;103.00;51.10;;;;;;;2.41;88.50;99963.34;121731;1146;26370;-64
2021/01/03 10:23:35;;;;;;;160.10;75.83;;;;;;;2.40;88.16;99970.05;120101;1149;22944;-63
2021/01/03 10:26:19;;;;;;;99.60;47.40;;;;;;;2.42;88.38;99973.14;120192;1150;27286;-64
2021/01/03 10:28:51;;;;;;;137.37;66.63;;;;;;;2.41;88.42;99974.37;120089;1150;22923;-64
2021/01/03 10:31:21;;;;;;;87.27;45.23;;;;;;;2.42;88.39;99975.91;120144;1149;22941;-64
2021/01/03 10:33:53;;;;;;;81.60;40.17;;;;;;;2.41;88.50;99979.88;120095;1150;23013;-65
2021/01/03 10:36:24;;;;;;;81.08;40.92;;;;;;;2.42;88.37;99969.64;120387;1150;22926;-64
2021/01/03 10:38:54;;;;;;;82.00;40.85;;;;;;;2.39;88.35;99971.27;120154;1149;22954;-65
2021/01/03 10:41:31;;;;;;;83.17;39.98;;;;;;;2.39;88.18;99970.48;120668;1149;27704;-63
2021/01/03 10:44:03;;;;;;;92.97;49.17;;;;;;;2.37;88.28;99957.16;120091;1149;28544;-64
2021/01/03 10:46:33;;;;;;;95.23;50.27;;;;;;;2.38;88.37;99949.64;120185;1150;22986;-65
2021/01/03 10:49:03;;;;;;;;;;;;;;;2.37;88.42;99935.11;120315;1150;24564;-64
2021/01/03 10:51:35;;;;;;;89.03;46.53;;;;;;;2.36;88.54;99930.02;120241;1149;21689;-65
2021/01/03 10:54:07;;;;;;;90.40;47.20;;;;;;;2.38;88.15;99930.36;120614;1149;26759;-64
2021/01/03 10:56:38;;;;;;;82.15;42.20;;;;;;;2.39;88.06;99929.16;120219;1150;27540;-65
2021/01/03 10:59:09;;;;;;;79.80;40.35;;;;;;;2.39;88.48;99918.92;120321;1150;22925;-64
2021/01/03 11:01:40;;;;;;;88.27;45.33;;;;;;;2.41;88.44;99922.02;120430;1147;26089;-64
2021/01/03 11:04:11;;;;;;;88.03;42.63;;;;;;;2.44;88.57;99912.13;120370;1147;28586;-63
2021/01/03 11:06:47;;;;;;;77.90;37.87;;;;;;;2.48;88.66;99916.31;120466;1147;22913;-65
2021/01/03 11:09:20;;;;;;;72.80;37.40;;;;;;;2.50;88.33;99899.38;120228;1148;23077;-63
2021/01/03 11:11:51;;;;;;;82.10;41.37;;;;;;;2.52;88.15;99901.69;120398;1146;27192;-62
2021/01/03 11:14:22;;;;;;;87.87;45.70;;;;;;;2.56;88.54;99886.63;120327;1146;23081;-65
2021/01/03 11:16:51;;;;;;;;;;;;;;;2.60;88.54;99897.55;120535;1147;26351;-65
2021/01/03 11:19:21;;;;;;;88.50;42.90;;;;;;;2.62;88.78;99895.91;120536;1146;21573;-65
2021/01/03 11:21:56;;;;;;;81.67;41.63;;;;;;;2.63;88.56;99896.69;120535;1146;22921;-63
2021/01/03 11:24:27;;;;;;;85.50;43.15;;;;;;;2.62;88.42;99892.37;120406;1148;22945;-64
2021/01/03 11:26:56;;;;;;;;;;;;;;;2.63;88.12;99893.94;120267;1147;22970;-64
2021/01/03 11:29:28;;;;;;;75.23;36.70;;;;;;;2.62;87.89;99900.64;120459;1148;21555;-63
2021/01/03 11:32:00;;;;;;;88.47;42.50;;;;;;;2.60;88.11;99900.30;120392;1147;22952;-65
2021/01/03 11:34:32;;;;;;;89.45;44.85;;;;;;;2.61;88.51;99890.84;120253;1148;23716;-63
2021/01/03 11:37:05;;;;;;;86.23;44.17;;;;;;;2.62;88.18;99901.42;120320;1153;22919;-63
2021/01/03 11:39:36;;;;;;;86.80;42.47;;;;;;;2.62;88.37;99890.39;120330;1148;23081;-64
2021/01/03 11:42:10;;;;;;;88.03;45.53;;;;;;;2.64;88.38;99896.25;120329;1147;22921;-65
2021/01/03 11:44:42;;;;;;;80.37;40.10;;;;;;;2.65;88.19;99894.27;120617;1147;26098;-64
2021/01/03 11:47:16;;;;;;;86.60;45.43;;;;;;;2.65;88.40;99899.78;120684;1147;22924;-64
2021/01/03 11:49:47;;;;;;;96.53;48.87;;;;;;;2.65;88.27;99897.78;120397;1147;22989;-63
2021/01/03 11:52:18;;;;;;;88.37;45.37;;;;;;;2.66;88.37;99893.83;120737;1147;28989;-64
2021/01/03 11:54:48;;;;;;;96.30;48.15;;;;;;;2.67;88.16;99902.87;120359;1148;22913;-64
2021/01/03 11:57:19;;;;;;;92.93;44.63;;;;;;;2.69;88.13;99892.95;120427;1147;23054;-64
2021/01/03 11:59:49;;;;;;;104.53;49.67;;;;;;;2.70;88.15;99893.73;120291;1148;22952;-64